createdAt,value
2023-03-11T00:00:41.317Z,99.66
2023-03-11T00:03:24.756Z,99.68
2023-03-11T00:05:53.865Z,99.74
2023-03-11T00:08:24.318Z,99.64
2023-03-11T00:10:55.522Z,99.83
2023-03-11T00:13:23.817Z,99.99
2023-03-11T00:15:56.213Z,99.97
2023-03-11T00:18:27.072Z,99.99
2023-03-11T00:20:55.798Z,100.00
2023-03-11T00:23:24.797Z,100.00
2023-03-11T00:25:52.870Z,100.00
2023-03-11T00:28:22.174Z,100.00
2023-03-11T00:30:49.849Z,100.00
2023-03-11T00:33:17.565Z,100.00
2023-03-11T00:35:45.327Z,100.00
2023-03-11T00:38:16.522Z,100.00
2023-03-11T00:40:47.226Z,100.00
2023-03-11T00:43:16.250Z,100.00
2023-03-11T00:45:43.938Z,100.00
2023-03-11T00:48:12.426Z,100.00
2023-03-11T00:50:41.082Z,100.00
2023-03-11T00:53:10.248Z,100.00
2023-03-11T00:55:37.943Z,100.00
2023-03-11T00:58:08.665Z,100.00
2023-03-11T01:00:52.264Z,100.00
2023-03-11T01:03:20.059Z,100.00
2023-03-11T01:05:47.785Z,100.00
2023-03-11T01:08:15.420Z,100.00
2023-03-11T01:10:43.319Z,100.00
2023-03-11T01:13:10.945Z,100.00
2023-03-11T01:15:38.760Z,100.00
2023-03-11T01:18:07.377Z,100.00
2023-03-11T01:20:37.174Z,100.00
2023-03-11T01:23:07.165Z,100.00
2023-03-11T01:25:35.912Z,100.00
2023-03-11T01:28:04.276Z,100.00
2023-03-11T01:30:31.997Z,100.00
2023-03-11T01:33:01.534Z,100.00
2023-03-11T01:35:31.309Z,100.00
2023-03-11T01:37:59.364Z,100.00
2023-03-11T01:40:35.742Z,100.00
2023-03-11T01:43:43.005Z,100.00
2023-03-11T01:46:15.850Z,100.00
2023-03-11T01:48:48.583Z,100.00
2023-03-11T01:51:27.807Z,100.00
2023-03-11T01:53:57.184Z,100.00
2023-03-11T01:56:25.612Z,100.00
2023-03-11T01:58:54.436Z,100.00
2023-03-11T02:01:24.608Z,100.00
2023-03-11T02:03:53.012Z,100.00
2023-03-11T02:06:23.717Z,100.00
2023-03-11T02:08:53.598Z,100.00
2023-03-11T02:11:26.531Z,99.76
2023-03-11T02:13:58.881Z,99.42
2023-03-11T02:16:26.628Z,99.24
2023-03-11T02:18:54.664Z,98.84
2023-03-11T02:21:29.076Z,98.83
2023-03-11T02:24:18.811Z,98.79
2023-03-11T02:27:10.293Z,98.64
2023-03-11T02:29:39.136Z,98.60
2023-03-11T02:32:09.788Z,98.84
2023-03-11T02:34:40.903Z,98.88
2023-03-11T02:37:15.124Z,98.90
2023-03-11T02:39:51.336Z,98.96
2023-03-11T02:42:27.262Z,99.14
2023-03-11T02:45:10.899Z,99.19
2023-03-11T02:47:40.589Z,99.37
2023-03-11T02:50:13.761Z,99.54
2023-03-11T02:52:41.737Z,99.46
2023-03-11T02:55:11.786Z,99.37
2023-03-11T02:57:40.476Z,99.71
2023-03-11T03:00:13.941Z,99.66
2023-03-11T03:02:44.338Z,99.93
2023-03-11T03:05:13.272Z,100.00
2023-03-11T03:07:40.989Z,99.97
2023-03-11T03:10:09.657Z,99.89
2023-03-11T03:12:37.491Z,100.00
2023-03-11T03:15:05.974Z,100.00
2023-03-11T03:17:33.823Z,100.00
2023-03-11T03:20:01.561Z,100.00
2023-03-11T03:22:30.243Z,100.00
2023-03-11T03:24:58.208Z,100.00
2023-03-11T03:27:26.072Z,100.00
2023-03-11T03:29:53.719Z,100.00
2023-03-11T03:32:21.601Z,100.00
2023-03-11T03:34:49.481Z,100.00
2023-03-11T03:37:17.526Z,100.00
2023-03-11T03:39:45.295Z,100.00
2023-03-11T03:42:13.796Z,100.00
2023-03-11T03:44:41.764Z,100.00
2023-03-11T03:47:09.748Z,100.00
2023-03-11T03:49:38.263Z,100.00
2023-03-11T03:52:07.058Z,100.00
2023-03-11T03:54:34.880Z,100.00
2023-03-11T03:57:04.539Z,100.00
2023-03-11T03:59:32.568Z,100.00
2023-03-11T04:02:00.597Z,100.00
2023-03-11T04:04:29.904Z,100.00
2023-03-11T04:06:58.101Z,100.00
2023-03-11T04:09:26.126Z,100.00
2023-03-11T04:11:54.069Z,100.00
2023-03-11T04:14:21.820Z,100.00
2023-03-11T04:16:56.054Z,100.00
2023-03-11T04:19:25.176Z,100.00
2023-03-11T04:21:52.932Z,100.00
2023-03-11T04:24:21.323Z,100.00
2023-03-11T04:26:49.362Z,100.00
2023-03-11T04:29:17.526Z,100.00
2023-03-11T04:31:49.086Z,100.00
2023-03-11T04:34:17.485Z,100.00
2023-03-11T04:36:45.317Z,100.00
2023-03-11T04:39:15.500Z,100.00
2023-03-11T04:41:44.192Z,100.00
2023-03-11T04:44:14.844Z,100.00
2023-03-11T04:46:42.873Z,100.00
2023-03-11T04:49:10.921Z,100.00
2023-03-11T04:51:39.083Z,100.00
2023-03-11T04:54:08.051Z,100.00
2023-03-11T04:56:35.953Z,100.00
2023-03-11T04:59:04.217Z,100.00
2023-03-11T05:01:32.132Z,100.00
2023-03-11T05:04:01.818Z,100.00
2023-03-11T05:06:29.918Z,100.00
2023-03-11T05:08:58.929Z,100.00
2023-03-11T05:11:27.405Z,100.00
2023-03-11T05:13:55.103Z,100.00
2023-03-11T05:16:23.293Z,100.00
2023-03-11T05:18:51.296Z,100.00
2023-03-11T05:21:18.970Z,100.00
2023-03-11T05:23:46.634Z,100.00
2023-03-11T05:26:15.137Z,100.00
2023-03-11T05:28:44.081Z,100.00
2023-03-11T05:31:12.356Z,100.00
2023-03-11T05:33:40.791Z,100.00
2023-03-11T05:36:11.083Z,100.00
2023-03-11T05:38:41.081Z,100.00
2023-03-11T05:41:08.811Z,100.00
2023-03-11T05:43:37.162Z,100.00
2023-03-11T05:46:04.892Z,100.00
2023-03-11T05:48:33.273Z,100.00
2023-03-11T05:51:01.241Z,100.00
2023-03-11T05:53:28.959Z,100.00
2023-03-11T05:55:57.906Z,100.00
2023-03-11T05:58:27.545Z,100.00
2023-03-11T06:00:55.578Z,100.00
2023-03-11T06:03:23.433Z,100.00
2023-03-11T06:05:53.006Z,100.00
2023-03-11T06:08:21.984Z,100.00
2023-03-11T06:10:49.838Z,100.00
2023-03-11T06:13:18.051Z,100.00
2023-03-11T06:15:52.257Z,100.00
2023-03-11T06:18:21.421Z,100.00
2023-03-11T06:20:49.337Z,100.00
2023-03-11T06:23:17.555Z,100.00
2023-03-11T06:25:47.049Z,100.00
2023-03-11T06:28:14.790Z,100.00
2023-03-11T06:30:44.592Z,100.00
2023-03-11T06:33:15.023Z,100.00
2023-03-11T06:35:43.064Z,100.00
2023-03-11T06:38:10.762Z,100.00
2023-03-11T06:40:38.829Z,100.00
2023-03-11T06:43:06.690Z,100.00
2023-03-11T06:45:36.084Z,100.00
2023-03-11T06:48:04.075Z,100.00
2023-03-11T06:50:32.685Z,100.00
2023-03-11T06:53:03.003Z,100.00
2023-03-11T06:55:31.763Z,100.00
2023-03-11T06:58:00.111Z,100.00
2023-03-11T07:00:28.371Z,100.00
2023-03-11T07:02:58.252Z,100.00
2023-03-11T07:05:26.586Z,100.00
2023-03-11T07:07:57.972Z,100.00
2023-03-11T07:10:26.101Z,100.00
2023-03-11T07:12:54.151Z,100.00
2023-03-11T07:15:22.105Z,100.00
2023-03-11T07:17:49.751Z,100.00
2023-03-11T07:20:18.071Z,100.00
2023-03-11T07:22:45.708Z,100.00
2023-03-11T07:25:14.176Z,100.00
2023-03-11T07:27:42.068Z,100.00
2023-03-11T07:30:11.022Z,100.00
2023-03-11T07:32:38.699Z,100.00
2023-03-11T07:35:07.869Z,100.00
2023-03-11T07:37:35.728Z,100.00
2023-03-11T07:40:03.849Z,100.00
2023-03-11T07:42:31.496Z,100.00
2023-03-11T07:44:59.583Z,100.00
2023-03-11T07:47:27.242Z,100.00
2023-03-11T07:49:57.207Z,100.00
2023-03-11T07:52:25.125Z,100.00
2023-03-11T07:54:52.841Z,100.00
2023-03-11T07:57:20.664Z,100.00
2023-03-11T07:59:48.343Z,100.00
2023-03-11T08:02:16.409Z,100.00
2023-03-11T08:04:44.148Z,100.00
2023-03-11T08:07:12.307Z,100.00
2023-03-11T08:09:39.953Z,100.00
2023-03-11T08:12:08.258Z,100.00
2023-03-11T08:14:35.946Z,100.00
2023-03-11T08:17:04.207Z,100.00
2023-03-11T08:19:31.925Z,100.00
2023-03-11T08:22:02.191Z,100.00
2023-03-11T08:24:29.847Z,100.00
2023-03-11T08:26:57.515Z,100.00
2023-03-11T08:29:25.401Z,100.00
2023-03-11T08:31:53.371Z,100.00
2023-03-11T08:34:22.353Z,100.00
2023-03-11T08:36:50.545Z,100.00
2023-03-11T08:39:18.585Z,100.00
2023-03-11T08:41:46.214Z,100.00
2023-03-11T08:44:13.851Z,100.00
2023-03-11T08:46:41.962Z,100.00
2023-03-11T08:49:10.191Z,100.00
2023-03-11T08:51:38.150Z,100.00
2023-03-11T08:54:06.047Z,100.00
2023-03-11T08:56:33.837Z,100.00
2023-03-11T08:59:01.592Z,100.00
2023-03-11T09:01:30.140Z,100.00
2023-03-11T09:03:58.084Z,100.00
2023-03-11T09:06:25.849Z,100.00
2023-03-11T09:08:53.795Z,100.00
2023-03-11T09:11:22.778Z,100.00
2023-03-11T09:13:51.250Z,100.00
2023-03-11T09:16:22.873Z,100.00
2023-03-11T09:18:50.959Z,100.00
2023-03-11T09:21:18.789Z,100.00
2023-03-11T09:23:47.231Z,100.00
2023-03-11T09:26:15.690Z,100.00
2023-03-11T09:28:46.897Z,100.00
2023-03-11T09:31:16.146Z,100.00
2023-03-11T09:33:45.159Z,100.00
2023-03-11T09:36:15.218Z,100.00
2023-03-11T09:38:43.488Z,100.00
2023-03-11T09:41:17.400Z,100.00
2023-03-11T09:43:51.083Z,100.00
2023-03-11T09:46:50.753Z,100.00
2023-03-11T09:49:31.494Z,100.00
2023-03-11T09:52:23.529Z,100.00
2023-03-11T09:54:54.604Z,100.00
2023-03-11T09:57:32.272Z,100.00
2023-03-11T10:00:04.043Z,100.00
2023-03-11T10:02:40.327Z,100.00
2023-03-11T10:05:25.771Z,100.00
2023-03-11T10:08:03.968Z,100.00
2023-03-11T10:10:39.594Z,100.00
2023-03-11T10:13:36.883Z,100.00
2023-03-11T10:16:30.915Z,100.00
2023-03-11T10:19:29.455Z,100.00
2023-03-11T10:22:23.338Z,100.00
2023-03-11T10:25:14.439Z,100.00
2023-03-11T10:27:49.024Z,100.00
2023-03-11T10:30:36.282Z,100.00
2023-03-11T10:33:35.900Z,100.00
2023-03-11T10:36:14.149Z,100.00
2023-03-11T10:38:46.706Z,100.00
2023-03-11T10:41:24.546Z,100.00
2023-03-11T10:44:01.987Z,100.00
2023-03-11T10:46:30.240Z,100.00
2023-03-11T10:48:58.090Z,100.00
2023-03-11T10:51:33.640Z,100.00
2023-03-11T10:54:03.420Z,100.00
2023-03-11T10:56:40.582Z,100.00
2023-03-11T10:59:29.053Z,100.00
2023-03-11T11:02:02.649Z,100.00
2023-03-11T11:04:37.173Z,100.00
2023-03-11T11:07:22.743Z,100.00
2023-03-11T11:10:12.936Z,100.00
2023-03-11T11:13:16.697Z,100.00
2023-03-11T11:16:05.921Z,99.94
2023-03-11T11:18:42.066Z,100.00
2023-03-11T11:21:17.144Z,100.00
2023-03-11T11:24:01.063Z,99.91
2023-03-11T11:26:28.714Z,99.67
2023-03-11T11:29:15.537Z,99.32
2023-03-11T11:31:46.424Z,99.29
2023-03-11T11:34:34.523Z,98.75
2023-03-11T11:37:05.355Z,99.09
2023-03-11T11:40:25.815Z,98.83
2023-03-11T11:43:12.460Z,98.91
2023-03-11T11:45:48.255Z,98.13
2023-03-11T11:48:48.335Z,98.94
2023-03-11T11:51:30.014Z,98.15
2023-03-11T11:54:13.567Z,97.17
2023-03-11T11:56:41.986Z,97.44
2023-03-11T11:59:18.964Z,96.30
2023-03-11T12:01:57.967Z,96.53
2023-03-11T12:04:48.683Z,96.54
2023-03-11T12:07:32.268Z,96.20
2023-03-11T12:10:21.774Z,95.32
2023-03-11T12:13:19.752Z,95.69
2023-03-11T12:15:55.774Z,96.41
2023-03-11T12:18:30.082Z,95.85
2023-03-11T12:20:57.908Z,95.84
2023-03-11T12:23:31.875Z,96.10
2023-03-11T12:26:15.540Z,96.71
2023-03-11T12:29:01.974Z,96.92
2023-03-11T12:31:39.018Z,94.60
2023-03-11T12:34:12.080Z,94.45
2023-03-11T12:36:43.926Z,93.32
2023-03-11T12:39:31.637Z,93.85
2023-03-11T12:42:15.569Z,94.09
2023-03-11T12:44:44.576Z,93.78
2023-03-11T12:47:12.219Z,94.22
2023-03-11T12:49:43.352Z,93.80
2023-03-11T12:52:10.906Z,94.22
2023-03-11T12:54:39.576Z,92.24
2023-03-11T12:57:23.264Z,92.97
2023-03-11T13:00:23.006Z,93.00
2023-03-11T13:03:11.050Z,91.74
2023-03-11T13:05:57.806Z,91.07
2023-03-11T13:08:52.470Z,91.14
2023-03-11T13:11:39.052Z,90.64
2023-03-11T13:14:31.817Z,90.57
2023-03-11T13:17:35.845Z,90.85
2023-03-11T13:20:03.973Z,91.40
2023-03-11T13:22:53.771Z,91.86
2023-03-11T13:25:29.891Z,91.54
2023-03-11T13:28:13.862Z,90.41
2023-03-11T13:30:54.099Z,91.56
2023-03-11T13:33:32.920Z,91.06
2023-03-11T13:36:34.478Z,91.31
2023-03-11T13:39:18.114Z,92.40
2023-03-11T13:41:47.564Z,92.88
2023-03-11T13:44:41.106Z,93.58
2023-03-11T13:47:17.382Z,92.74
2023-03-11T13:50:07.056Z,93.23
2023-03-11T13:52:54.779Z,91.67
2023-03-11T13:55:30.788Z,92.24
2023-03-11T13:57:58.446Z,92.41
2023-03-11T14:00:29.149Z,92.90
2023-03-11T14:03:03.971Z,93.29
2023-03-11T14:05:33.031Z,93.01
2023-03-11T14:08:23.473Z,93.54
2023-03-11T14:11:04.129Z,92.62
2023-03-11T14:13:38.369Z,92.18
2023-03-11T14:16:10.474Z,92.53
2023-03-11T14:18:43.652Z,92.17
2023-03-11T14:21:22.654Z,92.06
2023-03-11T14:23:52.354Z,91.99
2023-03-11T14:26:22.937Z,91.65
2023-03-11T14:28:56.963Z,92.30
2023-03-11T14:31:33.516Z,92.13
2023-03-11T14:34:04.787Z,91.46
2023-03-11T14:36:52.465Z,91.46
2023-03-11T14:39:39.885Z,91.10
2023-03-11T14:42:23.864Z,89.57
2023-03-11T14:45:03.148Z,89.92
2023-03-11T14:47:49.884Z,90.35
2023-03-11T14:50:21.598Z,89.95
2023-03-11T14:53:14.699Z,90.63
2023-03-11T14:55:59.534Z,90.45
2023-03-11T14:58:35.669Z,91.25
2023-03-11T15:01:22.845Z,91.66
2023-03-11T15:03:59.472Z,91.44
2023-03-11T15:06:29.521Z,91.52
2023-03-11T15:09:01.283Z,91.01
2023-03-11T15:11:29.545Z,90.76
2023-03-11T15:14:17.054Z,91.22
2023-03-11T15:16:44.787Z,90.60
2023-03-11T15:19:28.539Z,89.80
2023-03-11T15:21:59.772Z,89.57
2023-03-11T15:24:31.290Z,89.33
2023-03-11T15:27:08.587Z,89.32
2023-03-11T15:29:37.181Z,89.46
2023-03-11T15:32:36.913Z,89.20
2023-03-11T15:35:07.811Z,88.10
2023-03-11T15:37:35.468Z,88.09
2023-03-11T15:40:24.544Z,86.33
2023-03-11T15:43:30.160Z,86.73
2023-03-11T15:46:00.823Z,85.97
2023-03-11T15:48:29.954Z,86.25
2023-03-11T15:51:00.300Z,87.07
2023-03-11T15:53:29.702Z,86.91
2023-03-11T15:56:07.402Z,86.35
2023-03-11T15:58:38.246Z,87.54
2023-03-11T16:01:06.218Z,87.83
2023-03-11T16:03:33.882Z,87.61
2023-03-11T16:06:01.832Z,87.41
2023-03-11T16:08:29.556Z,87.37
2023-03-11T16:10:58.067Z,87.47
2023-03-11T16:13:25.787Z,87.04
2023-03-11T16:15:53.470Z,86.50
2023-03-11T16:18:21.160Z,86.14
2023-03-11T16:20:53.950Z,86.55
2023-03-11T16:23:28.721Z,85.80
2023-03-11T16:26:00.820Z,86.22
2023-03-11T16:28:28.613Z,85.35
2023-03-11T16:30:56.306Z,85.77
2023-03-11T16:33:24.094Z,85.92
2023-03-11T16:35:52.021Z,85.63
2023-03-11T16:38:22.932Z,86.63
2023-03-11T16:40:56.934Z,86.75
2023-03-11T16:43:24.990Z,86.21
2023-03-11T16:45:54.745Z,85.95
2023-03-11T16:48:23.622Z,86.78
2023-03-11T16:50:51.461Z,86.73
2023-03-11T16:53:19.210Z,86.58
2023-03-11T16:55:47.024Z,87.11
2023-03-11T16:58:15.184Z,86.73
2023-03-11T17:00:43.522Z,87.26
2023-03-11T17:03:13.502Z,87.37
2023-03-11T17:05:41.764Z,87.20
2023-03-11T17:08:10.096Z,87.57
2023-03-11T17:10:38.129Z,87.66
2023-03-11T17:13:06.983Z,88.04
2023-03-11T17:15:35.582Z,87.93
2023-03-11T17:18:04.261Z,88.41
2023-03-11T17:20:33.057Z,88.34
2023-03-11T17:23:01.230Z,87.97
2023-03-11T17:25:28.839Z,87.71
2023-03-11T17:27:57.900Z,87.74
2023-03-11T17:30:36.360Z,87.52
2023-03-11T17:33:05.213Z,87.27
2023-03-11T17:35:33.007Z,87.28
2023-03-11T17:38:00.786Z,87.66
2023-03-11T17:40:30.435Z,87.88
2023-03-11T17:42:58.505Z,88.19
2023-03-11T17:45:26.194Z,88.11
2023-03-11T17:47:53.803Z,88.07
2023-03-11T17:50:21.705Z,88.18
2023-03-11T17:52:49.529Z,87.98
2023-03-11T17:55:17.446Z,87.93
2023-03-11T17:57:46.031Z,87.70
2023-03-11T18:00:14.896Z,87.03
2023-03-11T18:02:42.722Z,87.55
2023-03-11T18:05:10.483Z,87.33
2023-03-11T18:07:39.176Z,87.42
2023-03-11T18:10:08.793Z,86.65
2023-03-11T18:12:37.073Z,86.83
2023-03-11T18:15:08.034Z,86.68
2023-03-11T18:17:35.960Z,86.10
2023-03-11T18:20:04.921Z,86.57
2023-03-11T18:22:35.387Z,86.49
2023-03-11T18:25:03.628Z,86.80
2023-03-11T18:27:31.279Z,87.26
2023-03-11T18:30:00.123Z,87.34
2023-03-11T18:32:28.025Z,87.38
2023-03-11T18:34:55.992Z,87.19
2023-03-11T18:37:24.921Z,87.53
2023-03-11T18:39:53.091Z,87.49
2023-03-11T18:42:20.886Z,87.62
2023-03-11T18:44:48.841Z,87.68
2023-03-11T18:47:16.549Z,87.98
2023-03-11T18:49:45.491Z,87.83
2023-03-11T18:52:13.331Z,88.30
2023-03-11T18:54:41.526Z,88.32
2023-03-11T18:57:09.170Z,88.44
2023-03-11T18:59:36.805Z,88.32
2023-03-11T19:02:04.581Z,88.38
2023-03-11T19:04:33.048Z,88.52
2023-03-11T19:07:01.002Z,88.58
2023-03-11T19:09:28.712Z,88.76
2023-03-11T19:11:56.320Z,88.71
2023-03-11T19:14:24.112Z,88.75
2023-03-11T19:16:51.852Z,88.68
2023-03-11T19:19:19.569Z,88.87
2023-03-11T19:21:47.674Z,89.14
2023-03-11T19:24:15.340Z,89.06
2023-03-11T19:26:45.913Z,89.22
2023-03-11T19:29:15.033Z,89.33
2023-03-11T19:31:43.925Z,89.08
2023-03-11T19:34:12.127Z,89.32
2023-03-11T19:36:39.861Z,89.46
2023-03-11T19:39:08.172Z,89.36
2023-03-11T19:41:35.867Z,89.17
2023-03-11T19:44:04.321Z,89.17
2023-03-11T19:46:34.805Z,89.28
2023-03-11T19:49:03.950Z,89.49
2023-03-11T19:51:46.543Z,89.33
2023-03-11T19:54:16.806Z,89.27
2023-03-11T19:56:44.831Z,89.39
2023-03-11T19:59:12.602Z,89.36
2023-03-11T20:01:42.121Z,89.50
2023-03-11T20:04:10.777Z,89.69
2023-03-11T20:06:38.832Z,89.57
2023-03-11T20:09:06.998Z,89.59
2023-03-11T20:11:39.887Z,89.92
2023-03-11T20:14:09.798Z,90.19
2023-03-11T20:16:38.248Z,90.24
2023-03-11T20:19:07.309Z,90.56
2023-03-11T20:21:39.319Z,90.61
2023-03-11T20:24:08.133Z,90.75
2023-03-11T20:26:36.774Z,90.59
2023-03-11T20:29:04.911Z,90.30
2023-03-11T20:31:33.356Z,90.79
2023-03-11T20:34:01.189Z,90.51
2023-03-11T20:36:32.845Z,90.64
2023-03-11T20:39:01.051Z,90.69
2023-03-11T20:41:35.572Z,91.17
2023-03-11T20:44:05.668Z,91.65
2023-03-11T20:46:34.175Z,91.63
2023-03-11T20:49:01.943Z,92.56
2023-03-11T20:51:29.675Z,92.14
2023-03-11T20:53:57.320Z,92.49
2023-03-11T20:56:26.766Z,92.51
2023-03-11T20:58:58.962Z,93.05
2023-03-11T21:01:29.609Z,93.23
2023-03-11T21:04:00.519Z,93.49
2023-03-11T21:06:36.980Z,93.31
2023-03-11T21:09:07.478Z,93.53
2023-03-11T21:11:35.226Z,93.71
2023-03-11T21:14:04.012Z,93.97
2023-03-11T21:16:31.895Z,93.88
2023-03-11T21:19:01.535Z,94.01
2023-03-11T21:21:29.442Z,94.08
2023-03-11T21:23:57.843Z,93.99
2023-03-11T21:26:25.588Z,94.05
2023-03-11T21:28:54.127Z,93.88
2023-03-11T21:31:25.154Z,93.96
2023-03-11T21:33:56.411Z,93.96
2023-03-11T21:36:24.366Z,93.90
2023-03-11T21:38:52.361Z,93.83
2023-03-11T21:41:24.899Z,93.98
2023-03-11T21:43:57.389Z,93.86
2023-03-11T21:46:28.500Z,94.00
2023-03-11T21:48:56.592Z,93.97
2023-03-11T21:51:25.794Z,94.01
2023-03-11T21:53:53.708Z,93.94
2023-03-11T21:56:21.628Z,93.78
2023-03-11T21:58:49.949Z,93.75
2023-03-11T22:01:17.799Z,93.71
2023-03-11T22:03:47.183Z,93.78
2023-03-11T22:06:15.662Z,93.72
2023-03-11T22:08:43.666Z,93.64
2023-03-11T22:11:17.593Z,93.50
2023-03-11T22:13:47.268Z,93.41
2023-03-11T22:16:15.541Z,93.48
2023-03-11T22:18:43.731Z,93.46
2023-03-11T22:21:11.763Z,93.38
2023-03-11T22:23:39.582Z,93.32
2023-03-11T22:26:07.540Z,93.41
2023-03-11T22:28:35.342Z,93.21
2023-03-11T22:31:12.059Z,93.27
2023-03-11T22:33:40.695Z,93.28
2023-03-11T22:36:09.653Z,93.20
2023-03-11T22:38:39.417Z,93.24
2023-03-11T22:41:09.502Z,93.32
2023-03-11T22:43:38.354Z,93.24
2023-03-11T22:46:06.538Z,93.27
2023-03-11T22:48:35.314Z,93.20
2023-03-11T22:51:03.966Z,93.21
2023-03-11T22:53:31.615Z,93.36
2023-03-11T22:55:59.225Z,93.52
2023-03-11T22:58:26.897Z,93.39
2023-03-11T23:00:54.474Z,93.43
2023-03-11T23:03:22.143Z,93.30
2023-03-11T23:05:49.881Z,93.30
2023-03-11T23:08:17.824Z,93.27
2023-03-11T23:10:47.593Z,93.14
2023-03-11T23:13:15.635Z,93.30
2023-03-11T23:15:47.036Z,93.15
2023-03-11T23:18:16.087Z,93.06
2023-03-11T23:20:44.803Z,93.25
2023-03-11T23:23:13.293Z,93.21
2023-03-11T23:25:41.727Z,93.15
2023-03-11T23:28:09.577Z,93.17
2023-03-11T23:30:39.767Z,93.13
2023-03-11T23:33:08.125Z,93.23
2023-03-11T23:35:40.136Z,93.40
2023-03-11T23:38:08.882Z,93.39
2023-03-11T23:40:36.645Z,93.36
2023-03-11T23:43:04.257Z,93.38
2023-03-11T23:45:31.837Z,93.38
2023-03-11T23:47:59.419Z,93.45
2023-03-11T23:50:27.055Z,93.33
2023-03-11T23:52:54.652Z,93.44
2023-03-11T23:55:22.247Z,93.39
2023-03-11T23:57:49.843Z,93.45
